sensor_id;sensor_type;location;lat;lon;timestamp;P1;durP1;ratioP1;P2;durP2;ratioP2
74344;SDS011;62776;50.518;6.732;2023-06-24T00:01:14;3.80;;;3.50;;
74344;SDS011;62776;50.518;6.732;2023-06-24T00:04:01;4.05;;;3.75;;
74344;SDS011;62776;50.518;6.732;2023-06-24T00:06:47;4.05;;;3.65;;
74344;SDS011;62776;50.518;6.732;2023-06-24T00:09:35;4.15;;;3.85;;
74344;SDS011;62776;50.518;6.732;2023-06-24T00:12:22;4.60;;;3.80;;
74344;SDS011;62776;50.518;6.732;2023-06-24T00:15:09;3.80;;;3.50;;
74344;SDS011;62776;50.518;6.732;2023-06-24T00:18:09;4.03;;;3.72;;
74344;SDS011;62776;50.518;6.732;2023-06-24T00:20:56;4.32;;;4.03;;
74344;SDS011;62776;50.518;6.732;2023-06-24T00:23:42;4.55;;;4.18;;
74344;SDS011;62776;50.518;6.732;2023-06-24T00:26:30;4.80;;;3.72;;
74344;SDS011;62776;50.518;6.732;2023-06-24T00:29:19;6.00;;;3.78;;
74344;SDS011;62776;50.518;6.732;2023-06-24T00:32:05;4.03;;;3.72;;
74344;SDS011;62776;50.518;6.732;2023-06-24T00:34:52;3.60;;;3.30;;
74344;SDS011;62776;50.518;6.732;2023-06-24T00:37:41;4.15;;;3.60;;
74344;SDS011;62776;50.518;6.732;2023-06-24T00:43:20;4.53;;;4.13;;
74344;SDS011;62776;50.518;6.732;2023-06-24T00:46:16;3.63;;;3.42;;
74344;SDS011;62776;50.518;6.732;2023-06-24T00:49:04;3.95;;;3.65;;
74344;SDS011;62776;50.518;6.732;2023-06-24T00:51:50;4.72;;;3.85;;
74344;SDS011;62776;50.518;6.732;2023-06-24T00:54:37;4.20;;;3.90;;
74344;SDS011;62776;50.518;6.732;2023-06-24T00:57:23;4.72;;;3.70;;
74344;SDS011;62776;50.518;6.732;2023-06-24T01:00:09;3.75;;;3.47;;
74344;SDS011;62776;50.518;6.732;2023-06-24T01:03:01;4.18;;;3.88;;
74344;SDS011;62776;50.518;6.732;2023-06-24T01:05:29;5.28;;;4.22;;
74344;SDS011;62776;50.518;6.732;2023-06-24T01:08:34;3.70;;;3.13;;
74344;SDS011;62776;50.518;6.732;2023-06-24T01:11:21;3.50;;;3.20;;
74344;SDS011;62776;50.518;6.732;2023-06-24T01:14:10;3.58;;;3.00;;
74344;SDS011;62776;50.518;6.732;2023-06-24T01:16:59;3.28;;;3.08;;
74344;SDS011;62776;50.518;6.732;2023-06-24T01:32:37;3.30;;;3.00;;
74344;SDS011;62776;50.518;6.732;2023-06-24T01:35:41;4.20;;;3.70;;
74344;SDS011;62776;50.518;6.732;2023-06-24T01:38:36;3.95;;;3.55;;
74344;SDS011;62776;50.518;6.732;2023-06-24T01:41:30;3.92;;;3.63;;
74344;SDS011;62776;50.518;6.732;2023-06-24T01:44:21;3.55;;;3.35;;
74344;SDS011;62776;50.518;6.732;2023-06-24T01:47:10;4.30;;;3.95;;
74344;SDS011;62776;50.518;6.732;2023-06-24T01:50:02;5.10;;;3.92;;
74344;SDS011;62776;50.518;6.732;2023-06-24T01:52:51;4.50;;;3.92;;
74344;SDS011;62776;50.518;6.732;2023-06-24T01:55:46;4.20;;;3.90;;
74344;SDS011;62776;50.518;6.732;2023-06-24T01:58:33;3.25;;;3.05;;
74344;SDS011;62776;50.518;6.732;2023-06-24T02:01:22;3.90;;;3.60;;
74344;SDS011;62776;50.518;6.732;2023-06-24T02:04:09;4.18;;;3.80;;
74344;SDS011;62776;50.518;6.732;2023-06-24T02:06:59;3.92;;;3.63;;
74344;SDS011;62776;50.518;6.732;2023-06-24T02:09:47;3.47;;;3.03;;
74344;SDS011;62776;50.518;6.732;2023-06-24T02:12:36;4.50;;;3.38;;
74344;SDS011;62776;50.518;6.732;2023-06-24T02:15:24;4.80;;;3.30;;
74344;SDS011;62776;50.518;6.732;2023-06-24T02:18:14;3.28;;;3.08;;
74344;SDS011;62776;50.518;6.732;2023-06-24T02:21:04;5.55;;;3.90;;
74344;SDS011;62776;50.518;6.732;2023-06-24T02:23:51;3.50;;;3.30;;
74344;SDS011;62776;50.518;6.732;2023-06-24T02:26:38;4.30;;;4.00;;
74344;SDS011;62776;50.518;6.732;2023-06-24T02:29:33;3.78;;;3.47;;
74344;SDS011;62776;50.518;6.732;2023-06-24T02:32:22;4.00;;;3.58;;
74344;SDS011;62776;50.518;6.732;2023-06-24T02:35:10;4.43;;;4.03;;
74344;SDS011;62776;50.518;6.732;2023-06-24T02:38:07;4.40;;;4.00;;
74344;SDS011;62776;50.518;6.732;2023-06-24T02:40:55;4.65;;;4.25;;
74344;SDS011;62776;50.518;6.732;2023-06-24T02:43:48;3.38;;;3.17;;
74344;SDS011;62776;50.518;6.732;2023-06-24T02:46:35;4.30;;;4.00;;
74344;SDS011;62776;50.518;6.732;2023-06-24T02:49:23;4.20;;;3.90;;
74344;SDS011;62776;50.518;6.732;2023-06-24T02:52:10;4.50;;;4.10;;
74344;SDS011;62776;50.518;6.732;2023-06-24T02:54:58;4.60;;;4.20;;
74344;SDS011;62776;50.518;6.732;2023-06-24T02:57:45;5.97;;;4.22;;
74344;SDS011;62776;50.518;6.732;2023-06-24T03:00:31;4.47;;;4.07;;
74344;SDS011;62776;50.518;6.732;2023-06-24T03:03:19;4.60;;;4.20;;
74344;SDS011;62776;50.518;6.732;2023-06-24T03:06:06;3.92;;;3.63;;
74344;SDS011;62776;50.518;6.732;2023-06-24T03:08:52;4.93;;;4.53;;
74344;SDS011;62776;50.518;6.732;2023-06-24T03:11:40;5.10;;;4.63;;
74344;SDS011;62776;50.518;6.732;2023-06-24T03:14:29;4.57;;;4.15;;
74344;SDS011;62776;50.518;6.732;2023-06-24T03:17:18;4.10;;;3.80;;
74344;SDS011;62776;50.518;6.732;2023-06-24T03:20:08;5.00;;;4.57;;
74344;SDS011;62776;50.518;6.732;2023-06-24T03:22:58;5.93;;;4.93;;
74344;SDS011;62776;50.518;6.732;2023-06-24T03:25:52;5.20;;;4.22;;
74344;SDS011;62776;50.518;6.732;2023-06-24T03:28:39;4.55;;;4.15;;
74344;SDS011;62776;50.518;6.732;2023-06-24T03:31:27;4.25;;;3.95;;
74344;SDS011;62776;50.518;6.732;2023-06-24T03:34:14;4.72;;;4.28;;
74344;SDS011;62776;50.518;6.732;2023-06-24T03:37:01;4.47;;;4.07;;
74344;SDS011;62776;50.518;6.732;2023-06-24T03:39:55;3.90;;;3.60;;
74344;SDS011;62776;50.518;6.732;2023-06-24T03:42:42;4.40;;;4.00;;
74344;SDS011;62776;50.518;6.732;2023-06-24T03:45:29;4.63;;;4.20;;
74344;SDS011;62776;50.518;6.732;2023-06-24T03:48:22;4.38;;;4.07;;
74344;SDS011;62776;50.518;6.732;2023-06-24T03:51:09;4.80;;;4.40;;
74344;SDS011;62776;50.518;6.732;2023-06-24T03:53:55;4.60;;;4.20;;
74344;SDS011;62776;50.518;6.732;2023-06-24T03:56:41;4.03;;;3.67;;
74344;SDS011;62776;50.518;6.732;2023-06-24T03:59:30;4.18;;;3.78;;
74344;SDS011;62776;50.518;6.732;2023-06-24T04:02:17;5.10;;;4.68;;
74344;SDS011;62776;50.518;6.732;2023-06-24T04:05:11;5.13;;;4.72;;
74344;SDS011;62776;50.518;6.732;2023-06-24T04:07:57;4.20;;;3.88;;
74344;SDS011;62776;50.518;6.732;2023-06-24T04:10:46;4.15;;;3.85;;
74344;SDS011;62776;50.518;6.732;2023-06-24T04:13:33;4.30;;;3.90;;
74344;SDS011;62776;50.518;6.732;2023-06-24T04:16:25;5.00;;;4.55;;
74344;SDS011;62776;50.518;6.732;2023-06-24T04:19:11;4.65;;;4.28;;
74344;SDS011;62776;50.518;6.732;2023-06-24T04:21:58;5.00;;;4.60;;
74344;SDS011;62776;50.518;6.732;2023-06-24T04:24:45;4.57;;;4.28;;
74344;SDS011;62776;50.518;6.732;2023-06-24T04:27:32;4.93;;;3.72;;
74344;SDS011;62776;50.518;6.732;2023-06-24T04:30:19;4.30;;;4.00;;
74344;SDS011;62776;50.518;6.732;2023-06-24T04:33:13;4.20;;;3.90;;
74344;SDS011;62776;50.518;6.732;2023-06-24T04:36:02;4.68;;;4.18;;
74344;SDS011;62776;50.518;6.732;2023-06-24T04:38:49;4.28;;;3.97;;
74344;SDS011;62776;50.518;6.732;2023-06-24T04:41:35;4.75;;;4.35;;
74344;SDS011;62776;50.518;6.732;2023-06-24T04:44:22;4.28;;;3.88;;
74344;SDS011;62776;50.518;6.732;2023-06-24T04:47:10;4.35;;;3.90;;
74344;SDS011;62776;50.518;6.732;2023-06-24T04:50:09;4.43;;;4.13;;
74344;SDS011;62776;50.518;6.732;2023-06-24T04:52:58;3.70;;;3.42;;
74344;SDS011;62776;50.518;6.732;2023-06-24T04:55:46;4.35;;;3.95;;
74344;SDS011;62776;50.518;6.732;2023-06-24T04:58:39;3.88;;;3.47;;
74344;SDS011;62776;50.518;6.732;2023-06-24T05:01:27;6.88;;;4.38;;
74344;SDS011;62776;50.518;6.732;2023-06-24T05:04:15;5.35;;;4.32;;
74344;SDS011;62776;50.518;6.732;2023-06-24T05:07:04;4.55;;;4.22;;
74344;SDS011;62776;50.518;6.732;2023-06-24T05:09:51;5.32;;;3.60;;
74344;SDS011;62776;50.518;6.732;2023-06-24T05:12:44;4.65;;;4.25;;
74344;SDS011;62776;50.518;6.732;2023-06-24T05:15:36;3.72;;;3.42;;
74344;SDS011;62776;50.518;6.732;2023-06-24T05:18:23;3.85;;;3.55;;
74344;SDS011;62776;50.518;6.732;2023-06-24T05:21:09;6.05;;;3.97;;
74344;SDS011;62776;50.518;6.732;2023-06-24T05:23:57;3.83;;;3.42;;
74344;SDS011;62776;50.518;6.732;2023-06-24T05:26:44;4.20;;;3.17;;
74344;SDS011;62776;50.518;6.732;2023-06-24T05:29:39;3.30;;;3.10;;
74344;SDS011;62776;50.518;6.732;2023-06-24T05:32:25;3.63;;;3.33;;
74344;SDS011;62776;50.518;6.732;2023-06-24T05:35:14;3.60;;;3.30;;
74344;SDS011;62776;50.518;6.732;2023-06-24T05:38:00;3.53;;;3.33;;
74344;SDS011;62776;50.518;6.732;2023-06-24T05:40:53;3.30;;;3.00;;
74344;SDS011;62776;50.518;6.732;2023-06-24T05:43:46;3.33;;;3.13;;
74344;SDS011;62776;50.518;6.732;2023-06-24T05:46:41;4.03;;;3.72;;
74344;SDS011;62776;50.518;6.732;2023-06-24T05:49:28;3.90;;;3.60;;
74344;SDS011;62776;50.518;6.732;2023-06-24T05:52:14;3.70;;;3.40;;
74344;SDS011;62776;50.518;6.732;2023-06-24T05:55:01;3.00;;;2.80;;
74344;SDS011;62776;50.518;6.732;2023-06-24T05:57:49;4.03;;;3.20;;
74344;SDS011;62776;50.518;6.732;2023-06-24T06:00:40;3.08;;;2.88;;
74344;SDS011;62776;50.518;6.732;2023-06-24T06:03:27;6.00;;;3.50;;
74344;SDS011;62776;50.518;6.732;2023-06-24T06:06:13;4.85;;;3.42;;
74344;SDS011;62776;50.518;6.732;2023-06-24T06:08:59;3.45;;;3.17;;
74344;SDS011;62776;50.518;6.732;2023-06-24T06:11:52;5.18;;;3.28;;
74344;SDS011;62776;50.518;6.732;2023-06-24T06:14:38;4.72;;;3.47;;
74344;SDS011;62776;50.518;6.732;2023-06-24T06:17:32;3.63;;;3.05;;
74344;SDS011;62776;50.518;6.732;2023-06-24T06:20:19;3.25;;;3.03;;
74344;SDS011;62776;50.518;6.732;2023-06-24T06:23:12;3.45;;;3.25;;
74344;SDS011;62776;50.518;6.732;2023-06-24T06:26:07;4.40;;;3.30;;
74344;SDS011;62776;50.518;6.732;2023-06-24T06:28:54;3.35;;;3.10;;
74344;SDS011;62776;50.518;6.732;2023-06-24T06:31:41;3.10;;;2.90;;
74344;SDS011;62776;50.518;6.732;2023-06-24T06:34:27;2.58;;;2.38;;
74344;SDS011;62776;50.518;6.732;2023-06-24T06:37:14;3.03;;;2.83;;
74344;SDS011;62776;50.518;6.732;2023-06-24T06:40:01;2.92;;;2.20;;
74344;SDS011;62776;50.518;6.732;2023-06-24T06:42:48;2.55;;;2.15;;
74344;SDS011;62776;50.518;6.732;2023-06-24T06:45:41;2.97;;;2.72;;
74344;SDS011;62776;50.518;6.732;2023-06-24T06:48:28;3.97;;;2.25;;
74344;SDS011;62776;50.518;6.732;2023-06-24T06:51:14;3.67;;;2.63;;
74344;SDS011;62776;50.518;6.732;2023-06-24T06:54:10;2.67;;;2.38;;
74344;SDS011;62776;50.518;6.732;2023-06-24T06:57:03;3.40;;;2.28;;
74344;SDS011;62776;50.518;6.732;2023-06-24T06:59:51;2.38;;;2.22;;
74344;SDS011;62776;50.518;6.732;2023-06-24T07:02:41;4.28;;;2.60;;
74344;SDS011;62776;50.518;6.732;2023-06-24T07:05:27;2.35;;;2.10;;
74344;SDS011;62776;50.518;6.732;2023-06-24T07:08:17;2.75;;;2.20;;
74344;SDS011;62776;50.518;6.732;2023-06-24T07:11:04;4.03;;;2.33;;
74344;SDS011;62776;50.518;6.732;2023-06-24T07:13:54;2.30;;;2.15;;
74344;SDS011;62776;50.518;6.732;2023-06-24T07:16:40;3.92;;;2.38;;
74344;SDS011;62776;50.518;6.732;2023-06-24T07:19:28;2.55;;;2.20;;
74344;SDS011;62776;50.518;6.732;2023-06-24T07:22:15;3.83;;;2.60;;
74344;SDS011;62776;50.518;6.732;2023-06-24T07:25:02;3.05;;;2.75;;
74344;SDS011;62776;50.518;6.732;2023-06-24T07:27:49;2.88;;;2.55;;
74344;SDS011;62776;50.518;6.732;2023-06-24T07:30:38;2.42;;;2.00;;
74344;SDS011;62776;50.518;6.732;2023-06-24T07:33:26;3.45;;;2.80;;
74344;SDS011;62776;50.518;6.732;2023-06-24T07:36:16;3.00;;;2.80;;
74344;SDS011;62776;50.518;6.732;2023-06-24T07:39:04;2.67;;;2.47;;
74344;SDS011;62776;50.518;6.732;2023-06-24T07:41:51;3.47;;;2.45;;
74344;SDS011;62776;50.518;6.732;2023-06-24T07:44:39;2.92;;;2.70;;
74344;SDS011;62776;50.518;6.732;2023-06-24T07:47:32;3.22;;;2.58;;
74344;SDS011;62776;50.518;6.732;2023-06-24T07:50:19;2.65;;;2.45;;
74344;SDS011;62776;50.518;6.732;2023-06-24T07:53:05;2.67;;;2.25;;
74344;SDS011;62776;50.518;6.732;2023-06-24T07:56:01;2.30;;;2.20;;
74344;SDS011;62776;50.518;6.732;2023-06-24T07:58:48;3.90;;;2.50;;
74344;SDS011;62776;50.518;6.732;2023-06-24T08:01:45;2.97;;;2.78;;
74344;SDS011;62776;50.518;6.732;2023-06-24T08:04:40;2.60;;;2.40;;
74344;SDS011;62776;50.518;6.732;2023-06-24T08:07:28;6.50;;;2.30;;
74344;SDS011;62776;50.518;6.732;2023-06-24T08:10:22;3.25;;;2.53;;
74344;SDS011;62776;50.518;6.732;2023-06-24T08:13:11;2.88;;;2.47;;
74344;SDS011;62776;50.518;6.732;2023-06-24T08:15:58;2.60;;;2.30;;
74344;SDS011;62776;50.518;6.732;2023-06-24T08:18:50;2.95;;;2.10;;
74344;SDS011;62776;50.518;6.732;2023-06-24T08:21:37;3.20;;;2.10;;
74344;SDS011;62776;50.518;6.732;2023-06-24T08:24:35;2.17;;;1.98;;
74344;SDS011;62776;50.518;6.732;2023-06-24T08:27:21;1.50;;;1.40;;
74344;SDS011;62776;50.518;6.732;2023-06-24T08:30:08;2.00;;;1.80;;
74344;SDS011;62776;50.518;6.732;2023-06-24T08:33:03;2.35;;;2.15;;
74344;SDS011;62776;50.518;6.732;2023-06-24T08:35:49;2.10;;;1.90;;
74344;SDS011;62776;50.518;6.732;2023-06-24T08:38:35;1.65;;;1.50;;
74344;SDS011;62776;50.518;6.732;2023-06-24T08:41:24;1.98;;;1.85;;
74344;SDS011;62776;50.518;6.732;2023-06-24T08:44:10;3.33;;;1.70;;
74344;SDS011;62776;50.518;6.732;2023-06-24T08:46:58;1.50;;;1.40;;
74344;SDS011;62776;50.518;6.732;2023-06-24T08:49:48;2.10;;;1.88;;
74344;SDS011;62776;50.518;6.732;2023-06-24T08:52:45;1.60;;;1.48;;
74344;SDS011;62776;50.518;6.732;2023-06-24T08:55:43;2.65;;;1.73;;
74344;SDS011;62776;50.518;6.732;2023-06-24T08:58:37;2.55;;;1.65;;
74344;SDS011;62776;50.518;6.732;2023-06-24T09:01:23;3.28;;;1.65;;
74344;SDS011;62776;50.518;6.732;2023-06-24T09:04:10;8.20;;;1.75;;
74344;SDS011;62776;50.518;6.732;2023-06-24T09:07:04;2.05;;;1.73;;
74344;SDS011;62776;50.518;6.732;2023-06-24T09:09:54;1.70;;;1.60;;
74344;SDS011;62776;50.518;6.732;2023-06-24T09:12:42;1.67;;;1.58;;
74344;SDS011;62776;50.518;6.732;2023-06-24T09:15:36;2.20;;;1.98;;
74344;SDS011;62776;50.518;6.732;2023-06-24T09:18:30;1.83;;;1.70;;
74344;SDS011;62776;50.518;6.732;2023-06-24T09:21:24;1.80;;;1.65;;
74344;SDS011;62776;50.518;6.732;2023-06-24T09:24:32;1.77;;;1.50;;
74344;SDS011;62776;50.518;6.732;2023-06-24T09:27:18;2.17;;;1.98;;
74344;SDS011;62776;50.518;6.732;2023-06-24T09:30:17;3.08;;;1.60;;
74344;SDS011;62776;50.518;6.732;2023-06-24T09:33:10;2.55;;;1.60;;
74344;SDS011;62776;50.518;6.732;2023-06-24T09:35:57;1.65;;;1.55;;
74344;SDS011;62776;50.518;6.732;2023-06-24T09:38:45;1.90;;;1.80;;
74344;SDS011;62776;50.518;6.732;2023-06-24T09:41:33;2.92;;;1.48;;
74344;SDS011;62776;50.518;6.732;2023-06-24T09:44:32;1.92;;;1.50;;
74344;SDS011;62776;50.518;6.732;2023-06-24T09:47:25;2.10;;;1.45;;
74344;SDS011;62776;50.518;6.732;2023-06-24T09:50:13;1.35;;;1.25;;
74344;SDS011;62776;50.518;6.732;2023-06-24T09:53:03;1.83;;;1.70;;
74344;SDS011;62776;50.518;6.732;2023-06-24T09:55:51;2.60;;;1.50;;
74344;SDS011;62776;50.518;6.732;2023-06-24T09:58:48;1.70;;;1.60;;
74344;SDS011;62776;50.518;6.732;2023-06-24T10:01:36;1.70;;;1.60;;
74344;SDS011;62776;50.518;6.732;2023-06-24T10:04:32;2.08;;;1.80;;
74344;SDS011;62776;50.518;6.732;2023-06-24T10:07:22;1.42;;;1.30;;
74344;SDS011;62776;50.518;6.732;2023-06-24T10:10:11;1.90;;;1.80;;
74344;SDS011;62776;50.518;6.732;2023-06-24T10:12:58;3.15;;;1.27;;
74344;SDS011;62776;50.518;6.732;2023-06-24T10:15:46;2.25;;;1.95;;
74344;SDS011;62776;50.518;6.732;2023-06-24T10:18:49;3.50;;;1.40;;
74344;SDS011;62776;50.518;6.732;2023-06-24T10:21:49;1.73;;;1.63;;
74344;SDS011;62776;50.518;6.732;2023-06-24T10:24:39;1.90;;;1.70;;
74344;SDS011;62776;50.518;6.732;2023-06-24T10:27:27;1.40;;;1.30;;
74344;SDS011;62776;50.518;6.732;2023-06-24T10:30:23;2.05;;;1.30;;
74344;SDS011;62776;50.518;6.732;2023-06-24T10:33:12;1.70;;;1.60;;
74344;SDS011;62776;50.518;6.732;2023-06-24T10:36:00;2.22;;;1.80;;
74344;SDS011;62776;50.518;6.732;2023-06-24T10:38:55;1.65;;;1.55;;
74344;SDS011;62776;50.518;6.732;2023-06-24T10:41:42;1.60;;;1.50;;
74344;SDS011;62776;50.518;6.732;2023-06-24T10:44:44;4.03;;;1.80;;
74344;SDS011;62776;50.518;6.732;2023-06-24T10:47:33;1.60;;;1.50;;
74344;SDS011;62776;50.518;6.732;2023-06-24T10:50:20;2.78;;;1.50;;
74344;SDS011;62776;50.518;6.732;2023-06-24T10:53:08;1.33;;;1.23;;
74344;SDS011;62776;50.518;6.732;2023-06-24T10:56:23;1.98;;;1.40;;
74344;SDS011;62776;50.518;6.732;2023-06-24T10:59:16;1.73;;;1.63;;
74344;SDS011;62776;50.518;6.732;2023-06-24T11:02:02;1.55;;;1.45;;
74344;SDS011;62776;50.518;6.732;2023-06-24T11:04:49;1.50;;;1.40;;
74344;SDS011;62776;50.518;6.732;2023-06-24T11:07:37;1.73;;;1.63;;
74344;SDS011;62776;50.518;6.732;2023-06-24T11:10:46;1.63;;;1.52;;
74344;SDS011;62776;50.518;6.732;2023-06-24T11:13:35;1.85;;;1.50;;
74344;SDS011;62776;50.518;6.732;2023-06-24T11:16:27;2.05;;;1.42;;
74344;SDS011;62776;50.518;6.732;2023-06-24T11:19:15;1.98;;;1.70;;
74344;SDS011;62776;50.518;6.732;2023-06-24T11:22:01;1.25;;;1.15;;
74344;SDS011;62776;50.518;6.732;2023-06-24T11:24:57;1.85;;;1.75;;
74344;SDS011;62776;50.518;6.732;2023-06-24T11:27:43;1.70;;;1.60;;
74344;SDS011;62776;50.518;6.732;2023-06-24T11:30:36;2.47;;;1.50;;
74344;SDS011;62776;50.518;6.732;2023-06-24T11:33:28;1.50;;;1.40;;
74344;SDS011;62776;50.518;6.732;2023-06-24T11:36:16;1.65;;;1.55;;
74344;SDS011;62776;50.518;6.732;2023-06-24T11:39:03;1.60;;;1.50;;
74344;SDS011;62776;50.518;6.732;2023-06-24T11:41:49;1.40;;;1.30;;
74344;SDS011;62776;50.518;6.732;2023-06-24T11:44:44;1.90;;;1.80;;
74344;SDS011;62776;50.518;6.732;2023-06-24T11:47:32;1.33;;;1.23;;
74344;SDS011;62776;50.518;6.732;2023-06-24T11:50:25;1.75;;;1.65;;
74344;SDS011;62776;50.518;6.732;2023-06-24T11:53:12;1.70;;;1.60;;
74344;SDS011;62776;50.518;6.732;2023-06-24T11:55:58;1.85;;;1.65;;
74344;SDS011;62776;50.518;6.732;2023-06-24T11:58:44;1.90;;;1.73;;
74344;SDS011;62776;50.518;6.732;2023-06-24T12:01:37;1.55;;;1.45;;
74344;SDS011;62776;50.518;6.732;2023-06-24T12:04:27;1.83;;;1.73;;
74344;SDS011;62776;50.518;6.732;2023-06-24T12:07:18;1.77;;;1.67;;
74344;SDS011;62776;50.518;6.732;2023-06-24T12:10:07;1.60;;;1.50;;
74344;SDS011;62776;50.518;6.732;2023-06-24T12:12:54;2.00;;;1.60;;
74344;SDS011;62776;50.518;6.732;2023-06-24T12:15:44;1.52;;;1.42;;
74344;SDS011;62776;50.518;6.732;2023-06-24T12:18:30;1.55;;;1.45;;
74344;SDS011;62776;50.518;6.732;2023-06-24T12:21:16;2.05;;;1.92;;
74344;SDS011;62776;50.518;6.732;2023-06-24T12:24:03;2.28;;;1.90;;
74344;SDS011;62776;50.518;6.732;2023-06-24T12:26:50;1.65;;;1.55;;
74344;SDS011;62776;50.518;6.732;2023-06-24T12:29:38;1.90;;;1.80;;
74344;SDS011;62776;50.518;6.732;2023-06-24T12:32:26;1.90;;;1.80;;
74344;SDS011;62776;50.518;6.732;2023-06-24T12:35:15;1.80;;;1.70;;
74344;SDS011;62776;50.518;6.732;2023-06-24T12:38:05;1.83;;;1.73;;
74344;SDS011;62776;50.518;6.732;2023-06-24T12:40:53;2.83;;;1.50;;
74344;SDS011;62776;50.518;6.732;2023-06-24T12:43:39;1.70;;;1.60;;
74344;SDS011;62776;50.518;6.732;2023-06-24T12:46:27;1.70;;;1.45;;
74344;SDS011;62776;50.518;6.732;2023-06-24T12:49:13;1.70;;;1.58;;
74344;SDS011;62776;50.518;6.732;2023-06-24T12:52:00;1.85;;;1.65;;
74344;SDS011;62776;50.518;6.732;2023-06-24T12:54:47;2.58;;;1.85;;
74344;SDS011;62776;50.518;6.732;2023-06-24T12:57:35;3.63;;;1.45;;
74344;SDS011;62776;50.518;6.732;2023-06-24T13:00:21;1.50;;;1.30;;
74344;SDS011;62776;50.518;6.732;2023-06-24T13:03:08;1.38;;;1.27;;
74344;SDS011;62776;50.518;6.732;2023-06-24T13:05:55;3.08;;;1.67;;
74344;SDS011;62776;50.518;6.732;2023-06-24T13:08:42;1.67;;;1.58;;
74344;SDS011;62776;50.518;6.732;2023-06-24T13:11:28;2.00;;;1.90;;
74344;SDS011;62776;50.518;6.732;2023-06-24T13:14:22;1.65;;;1.50;;
74344;SDS011;62776;50.518;6.732;2023-06-24T13:17:13;1.70;;;1.60;;
74344;SDS011;62776;50.518;6.732;2023-06-24T13:19:59;1.60;;;1.50;;
74344;SDS011;62776;50.518;6.732;2023-06-24T13:22:54;1.90;;;1.80;;
74344;SDS011;62776;50.518;6.732;2023-06-24T13:25:40;1.92;;;1.73;;
74344;SDS011;62776;50.518;6.732;2023-06-24T13:28:27;1.60;;;1.50;;
74344;SDS011;62776;50.518;6.732;2023-06-24T13:31:14;1.67;;;1.58;;
74344;SDS011;62776;50.518;6.732;2023-06-24T13:34:01;4.07;;;2.10;;
74344;SDS011;62776;50.518;6.732;2023-06-24T13:36:49;1.65;;;1.55;;
74344;SDS011;62776;50.518;6.732;2023-06-24T13:39:36;1.60;;;1.50;;
74344;SDS011;62776;50.518;6.732;2023-06-24T13:42:22;2.28;;;2.08;;
74344;SDS011;62776;50.518;6.732;2023-06-24T13:45:19;1.83;;;1.73;;
74344;SDS011;62776;50.518;6.732;2023-06-24T13:48:07;1.63;;;1.52;;
74344;SDS011;62776;50.518;6.732;2023-06-24T13:50:53;1.80;;;1.70;;
74344;SDS011;62776;50.518;6.732;2023-06-24T13:53:41;1.90;;;1.58;;
74344;SDS011;62776;50.518;6.732;2023-06-24T13:56:29;1.88;;;1.77;;
74344;SDS011;62776;50.518;6.732;2023-06-24T13:59:27;2.47;;;1.70;;
74344;SDS011;62776;50.518;6.732;2023-06-24T14:02:13;2.17;;;1.80;;
74344;SDS011;62776;50.518;6.732;2023-06-24T14:04:59;1.58;;;1.17;;
74344;SDS011;62776;50.518;6.732;2023-06-24T14:07:46;1.60;;;1.50;;
74344;SDS011;62776;50.518;6.732;2023-06-24T14:10:32;1.75;;;1.65;;
74344;SDS011;62776;50.518;6.732;2023-06-24T14:13:30;2.88;;;1.65;;
74344;SDS011;62776;50.518;6.732;2023-06-24T14:16:23;4.43;;;1.80;;
74344;SDS011;62776;50.518;6.732;2023-06-24T14:19:11;1.65;;;1.55;;
74344;SDS011;62776;50.518;6.732;2023-06-24T14:21:57;1.77;;;1.67;;
74344;SDS011;62776;50.518;6.732;2023-06-24T14:24:43;11.70;;;2.78;;
74344;SDS011;62776;50.518;6.732;2023-06-24T14:27:30;1.60;;;1.50;;
74344;SDS011;62776;50.518;6.732;2023-06-24T14:30:20;2.00;;;1.90;;
74344;SDS011;62776;50.518;6.732;2023-06-24T14:33:14;2.88;;;1.65;;
74344;SDS011;62776;50.518;6.732;2023-06-24T14:36:00;1.70;;;1.55;;
74344;SDS011;62776;50.518;6.732;2023-06-24T14:38:48;1.77;;;1.67;;
74344;SDS011;62776;50.518;6.732;2023-06-24T14:41:37;2.13;;;1.92;;
74344;SDS011;62776;50.518;6.732;2023-06-24T14:44:27;1.90;;;1.70;;
74344;SDS011;62776;50.518;6.732;2023-06-24T14:47:14;1.90;;;1.80;;
74344;SDS011;62776;50.518;6.732;2023-06-24T14:50:00;2.10;;;1.73;;
74344;SDS011;62776;50.518;6.732;2023-06-24T14:52:47;2.13;;;1.80;;
74344;SDS011;62776;50.518;6.732;2023-06-24T14:55:36;2.10;;;1.90;;
74344;SDS011;62776;50.518;6.732;2023-06-24T14:58:24;1.80;;;1.70;;
74344;SDS011;62776;50.518;6.732;2023-06-24T15:01:11;1.83;;;1.42;;
74344;SDS011;62776;50.518;6.732;2023-06-24T15:03:58;1.60;;;1.50;;
74344;SDS011;62776;50.518;6.732;2023-06-24T15:06:44;1.65;;;1.55;;
74344;SDS011;62776;50.518;6.732;2023-06-24T15:09:32;1.50;;;1.40;;
74344;SDS011;62776;50.518;6.732;2023-06-24T15:12:19;2.78;;;1.50;;
74344;SDS011;62776;50.518;6.732;2023-06-24T15:15:06;2.10;;;2.00;;
74344;SDS011;62776;50.518;6.732;2023-06-24T15:17:53;1.80;;;1.70;;
74344;SDS011;62776;50.518;6.732;2023-06-24T15:20:39;1.83;;;1.73;;
74344;SDS011;62776;50.518;6.732;2023-06-24T15:23:26;1.75;;;1.65;;
74344;SDS011;62776;50.518;6.732;2023-06-24T15:26:14;1.73;;;1.63;;
74344;SDS011;62776;50.518;6.732;2023-06-24T15:29:01;1.92;;;1.77;;
74344;SDS011;62776;50.518;6.732;2023-06-24T15:31:47;1.80;;;1.70;;
74344;SDS011;62776;50.518;6.732;2023-06-24T15:34:34;1.60;;;1.50;;
74344;SDS011;62776;50.518;6.732;2023-06-24T15:37:20;1.67;;;1.58;;
74344;SDS011;62776;50.518;6.732;2023-06-24T15:40:08;1.63;;;1.50;;
74344;SDS011;62776;50.518;6.732;2023-06-24T15:42:58;1.50;;;1.40;;
74344;SDS011;62776;50.518;6.732;2023-06-24T15:45:47;1.88;;;1.77;;
74344;SDS011;62776;50.518;6.732;2023-06-24T15:48:39;3.95;;;1.83;;
74344;SDS011;62776;50.518;6.732;2023-06-24T15:51:25;2.63;;;1.50;;
74344;SDS011;62776;50.518;6.732;2023-06-24T15:54:14;3.40;;;1.90;;
74344;SDS011;62776;50.518;6.732;2023-06-24T15:57:00;1.55;;;1.45;;
74344;SDS011;62776;50.518;6.732;2023-06-24T15:59:46;2.28;;;1.80;;
74344;SDS011;62776;50.518;6.732;2023-06-24T16:02:39;2.28;;;1.60;;
74344;SDS011;62776;50.518;6.732;2023-06-24T16:05:31;1.70;;;1.60;;
74344;SDS011;62776;50.518;6.732;2023-06-24T16:08:18;1.92;;;1.58;;
74344;SDS011;62776;50.518;6.732;2023-06-24T16:11:04;3.78;;;1.80;;
74344;SDS011;62776;50.518;6.732;2023-06-24T16:13:51;1.70;;;1.60;;
74344;SDS011;62776;50.518;6.732;2023-06-24T16:16:39;2.58;;;1.90;;
74344;SDS011;62776;50.518;6.732;2023-06-24T16:19:30;2.95;;;1.55;;
74344;SDS011;62776;50.518;6.732;2023-06-24T16:22:17;2.92;;;1.63;;
74344;SDS011;62776;50.518;6.732;2023-06-24T16:25:07;2.25;;;1.80;;
74344;SDS011;62776;50.518;6.732;2023-06-24T16:27:55;1.75;;;1.52;;
74344;SDS011;62776;50.518;6.732;2023-06-24T16:30:41;1.83;;;1.60;;
74344;SDS011;62776;50.518;6.732;2023-06-24T16:33:27;2.47;;;1.85;;
74344;SDS011;62776;50.518;6.732;2023-06-24T16:36:13;1.60;;;1.48;;
74344;SDS011;62776;50.518;6.732;2023-06-24T16:39:00;1.88;;;1.13;;
74344;SDS011;62776;50.518;6.732;2023-06-24T16:41:49;2.17;;;1.48;;
74344;SDS011;62776;50.518;6.732;2023-06-24T16:44:35;2.17;;;1.60;;
74344;SDS011;62776;50.518;6.732;2023-06-24T16:47:23;1.83;;;1.73;;
74344;SDS011;62776;50.518;6.732;2023-06-24T16:50:10;2.97;;;1.55;;
74344;SDS011;62776;50.518;6.732;2023-06-24T16:52:57;3.13;;;1.90;;
74344;SDS011;62776;50.518;6.732;2023-06-24T16:55:43;1.60;;;1.33;;
74344;SDS011;62776;50.518;6.732;2023-06-24T16:58:31;1.70;;;1.60;;
74344;SDS011;62776;50.518;6.732;2023-06-24T17:01:18;2.70;;;1.40;;
74344;SDS011;62776;50.518;6.732;2023-06-24T17:04:10;1.70;;;1.60;;
74344;SDS011;62776;50.518;6.732;2023-06-24T17:06:56;1.40;;;1.30;;
74344;SDS011;62776;50.518;6.732;2023-06-24T17:09:56;1.48;;;1.38;;
74344;SDS011;62776;50.518;6.732;2023-06-24T17:12:44;1.58;;;1.30;;
74344;SDS011;62776;50.518;6.732;2023-06-24T17:15:30;2.08;;;1.52;;